sensor_id;sensor_type;location;lat;lon;timestamp;pressure;altitude;pressure_sealevel;temperature;humidity
80308;BME280;69616;43.522;1.348;2023-07-20T00:02:15;100113.41;;;22.64;56.92
80308;BME280;69616;43.522;1.348;2023-07-20T00:04:40;100108.97;;;22.63;57.35
80308;BME280;69616;43.522;1.348;2023-07-20T00:07:06;100106.47;;;22.60;57.26
80308;BME280;69616;43.522;1.348;2023-07-20T00:09:31;100109.41;;;22.56;57.26
80308;BME280;69616;43.522;1.348;2023-07-20T00:11:57;100109.50;;;22.54;57.64
80308;BME280;69616;43.522;1.348;2023-07-20T00:14:23;100104.47;;;22.48;57.80
80308;BME280;69616;43.522;1.348;2023-07-20T00:16:50;100110.78;;;22.47;57.71
80308;BME280;69616;43.522;1.348;2023-07-20T00:19:22;100110.00;;;22.45;57.82
80308;BME280;69616;43.522;1.348;2023-07-20T00:21:47;100110.16;;;22.42;57.89
80308;BME280;69616;43.522;1.348;2023-07-20T00:24:13;100109.22;;;22.43;57.97
80308;BME280;69616;43.522;1.348;2023-07-20T00:26:38;100112.66;;;22.45;57.87
80308;BME280;69616;43.522;1.348;2023-07-20T00:29:04;100106.34;;;22.46;57.89
80308;BME280;69616;43.522;1.348;2023-07-20T00:31:29;100110.00;;;22.45;58.00
80308;BME280;69616;43.522;1.348;2023-07-20T00:33:54;100100.38;;;22.41;58.28
80308;BME280;69616;43.522;1.348;2023-07-20T00:36:20;100095.97;;;22.40;58.03
80308;BME280;69616;43.522;1.348;2023-07-20T00:38:45;100093.28;;;22.40;58.12
80308;BME280;69616;43.522;1.348;2023-07-20T00:41:10;100091.56;;;22.39;58.24
80308;BME280;69616;43.522;1.348;2023-07-20T00:43:36;100093.28;;;22.40;58.18
80308;BME280;69616;43.522;1.348;2023-07-20T00:46:01;100092.41;;;22.39;57.94
80308;BME280;69616;43.522;1.348;2023-07-20T00:48:29;100087.31;;;22.34;58.26
80308;BME280;69616;43.522;1.348;2023-07-20T00:50:55;100083.41;;;22.24;58.49
80308;BME280;69616;43.522;1.348;2023-07-20T00:53:21;100081.00;;;22.19;58.58
80308;BME280;69616;43.522;1.348;2023-07-20T00:55:46;100077.63;;;22.16;58.63
80308;BME280;69616;43.522;1.348;2023-07-20T00:58:12;100085.13;;;22.09;58.85
80308;BME280;69616;43.522;1.348;2023-07-20T01:00:38;100080.97;;;22.03;59.11
80308;BME280;69616;43.522;1.348;2023-07-20T01:03:03;100073.19;;;21.99;59.15
80308;BME280;69616;43.522;1.348;2023-07-20T01:05:59;100077.25;;;21.90;59.93
80308;BME280;69616;43.522;1.348;2023-07-20T01:08:34;100075.69;;;21.86;59.55
80308;BME280;69616;43.522;1.348;2023-07-20T01:11:17;100074.97;;;21.82;59.81
80308;BME280;69616;43.522;1.348;2023-07-20T01:13:45;100070.75;;;21.78;59.96
80308;BME280;69616;43.522;1.348;2023-07-20T01:16:11;100070.03;;;21.74;59.86
80308;BME280;69616;43.522;1.348;2023-07-20T01:18:37;100072.63;;;21.76;59.92
80308;BME280;69616;43.522;1.348;2023-07-20T01:21:08;100069.69;;;21.80;59.66
80308;BME280;69616;43.522;1.348;2023-07-20T01:24:56;100065.13;;;21.83;59.99
80308;BME280;69616;43.522;1.348;2023-07-20T01:27:06;100064.31;;;21.80;60.22
80308;BME280;69616;43.522;1.348;2023-07-20T01:32:40;100059.47;;;21.71;60.23
80308;BME280;69616;43.522;1.348;2023-07-20T01:35:08;100059.84;;;21.63;60.50
80308;BME280;69616;43.522;1.348;2023-07-20T01:37:36;100063.56;;;21.61;60.44
80308;BME280;69616;43.522;1.348;2023-07-20T01:40:03;100054.59;;;21.62;60.43
80308;BME280;69616;43.522;1.348;2023-07-20T01:42:29;100053.56;;;21.64;60.63
80308;BME280;69616;43.522;1.348;2023-07-20T01:44:55;100049.09;;;21.65;60.39
80308;BME280;69616;43.522;1.348;2023-07-20T01:47:20;100049.09;;;21.65;60.50
80308;BME280;69616;43.522;1.348;2023-07-20T01:49:45;100044.59;;;21.65;60.50
80308;BME280;69616;43.522;1.348;2023-07-20T01:52:11;100043.72;;;21.65;60.53
80308;BME280;69616;43.522;1.348;2023-07-20T01:54:36;100045.78;;;21.60;60.47
80308;BME280;69616;43.522;1.348;2023-07-20T01:57:02;100033.63;;;21.52;60.82
80308;BME280;69616;43.522;1.348;2023-07-20T01:59:28;100039.31;;;21.46;60.96
80308;BME280;69616;43.522;1.348;2023-07-20T02:01:53;100040.59;;;21.39;60.99
80308;BME280;69616;43.522;1.348;2023-07-20T02:04:19;100031.94;;;21.34;61.42
80308;BME280;69616;43.522;1.348;2023-07-20T02:06:44;100033.69;;;21.35;61.40
80308;BME280;69616;43.522;1.348;2023-07-20T02:09:10;100029.41;;;21.31;61.44
80308;BME280;69616;43.522;1.348;2023-07-20T02:11:35;100031.47;;;21.26;61.49
80308;BME280;69616;43.522;1.348;2023-07-20T02:14:00;100029.75;;;21.25;61.51
80308;BME280;69616;43.522;1.348;2023-07-20T02:16:26;100028.91;;;21.24;61.36
80308;BME280;69616;43.522;1.348;2023-07-20T02:18:52;100024.56;;;21.21;61.60
80308;BME280;69616;43.522;1.348;2023-07-20T02:21:17;100023.94;;;21.16;61.70
80308;BME280;69616;43.522;1.348;2023-07-20T02:23:43;100028.66;;;21.11;61.96
80308;BME280;69616;43.522;1.348;2023-07-20T02:26:08;100021.72;;;21.07;61.79
80308;BME280;69616;43.522;1.348;2023-07-20T02:28:34;100021.88;;;21.04;61.99
80308;BME280;69616;43.522;1.348;2023-07-20T02:30:59;100027.50;;;20.99;62.05
80308;BME280;69616;43.522;1.348;2023-07-20T02:33:25;100026.78;;;20.96;62.63
80308;BME280;69616;43.522;1.348;2023-07-20T02:35:51;100025.22;;;20.91;62.53
80308;BME280;69616;43.522;1.348;2023-07-20T02:38:17;100019.06;;;20.89;62.77
80308;BME280;69616;43.522;1.348;2023-07-20T02:40:42;100019.34;;;20.83;62.57
80308;BME280;69616;43.522;1.348;2023-07-20T02:43:08;100014.16;;;20.80;62.91
80308;BME280;69616;43.522;1.348;2023-07-20T02:45:34;100010.66;;;20.79;62.71
80308;BME280;69616;43.522;1.348;2023-07-20T02:48:00;100020.41;;;20.81;62.76
80308;BME280;69616;43.522;1.348;2023-07-20T02:50:26;100016.69;;;20.83;62.69
80308;BME280;69616;43.522;1.348;2023-07-20T02:52:51;100009.31;;;20.88;62.56
80308;BME280;69616;43.522;1.348;2023-07-20T02:55:16;100016.28;;;20.91;62.39
80308;BME280;69616;43.522;1.348;2023-07-20T02:57:42;100001.13;;;20.91;62.73
80308;BME280;69616;43.522;1.348;2023-07-20T03:00:08;100004.81;;;20.89;62.38
80308;BME280;69616;43.522;1.348;2023-07-20T03:02:33;100008.81;;;20.80;62.94
80308;BME280;69616;43.522;1.348;2023-07-20T03:04:59;100001.13;;;20.72;62.97
80308;BME280;69616;43.522;1.348;2023-07-20T03:07:27;100008.63;;;20.65;63.19
80308;BME280;69616;43.522;1.348;2023-07-20T03:09:53;100008.13;;;20.57;63.53
80308;BME280;69616;43.522;1.348;2023-07-20T03:12:20;100002.25;;;20.50;63.49
80308;BME280;69616;43.522;1.348;2023-07-20T03:14:46;100003.41;;;20.45;63.84
80308;BME280;69616;43.522;1.348;2023-07-20T03:17:11;100001.69;;;20.44;64.05
80308;BME280;69616;43.522;1.348;2023-07-20T03:19:36;100002.84;;;20.38;64.02
80308;BME280;69616;43.522;1.348;2023-07-20T03:22:02;99997.56;;;20.36;64.23
80308;BME280;69616;43.522;1.348;2023-07-20T03:24:27;99993.94;;;20.37;63.88
80308;BME280;69616;43.522;1.348;2023-07-20T03:26:52;99995.91;;;20.34;64.01
80308;BME280;69616;43.522;1.348;2023-07-20T03:29:18;99988.91;;;20.31;64.09
80308;BME280;69616;43.522;1.348;2023-07-20T03:31:44;99989.06;;;20.28;64.26
80308;BME280;69616;43.522;1.348;2023-07-20T03:34:09;99989.28;;;20.23;64.40
80308;BME280;69616;43.522;1.348;2023-07-20T03:36:34;99980.56;;;20.20;64.33
80308;BME280;69616;43.522;1.348;2023-07-20T03:39:00;99979.75;;;20.18;64.31
80308;BME280;69616;43.522;1.348;2023-07-20T03:41:25;99981.78;;;20.13;64.47
80308;BME280;69616;43.522;1.348;2023-07-20T03:43:51;99982.06;;;20.06;64.81
80308;BME280;69616;43.522;1.348;2023-07-20T03:46:16;99982.22;;;20.03;64.59
80308;BME280;69616;43.522;1.348;2023-07-20T03:48:42;99979.72;;;20.00;65.14
80308;BME280;69616;43.522;1.348;2023-07-20T03:51:07;99982.38;;;20.00;64.86
80308;BME280;69616;43.522;1.348;2023-07-20T03:53:32;99986.06;;;19.98;65.21
80308;BME280;69616;43.522;1.348;2023-07-20T03:55:58;99985.41;;;19.92;65.52
80308;BME280;69616;43.522;1.348;2023-07-20T03:58:23;99980.25;;;19.88;65.57
80308;BME280;69616;43.522;1.348;2023-07-20T04:00:51;99981.34;;;19.84;65.49
80308;BME280;69616;43.522;1.348;2023-07-20T04:03:17;99984.09;;;19.82;65.79
80308;BME280;69616;43.522;1.348;2023-07-20T04:05:43;99984.09;;;19.82;65.53
80308;BME280;69616;43.522;1.348;2023-07-20T04:08:09;99985.81;;;19.83;65.65
80308;BME280;69616;43.522;1.348;2023-07-20T04:10:37;99980.53;;;19.82;65.73
80308;BME280;69616;43.522;1.348;2023-07-20T04:13:03;99983.50;;;19.75;65.73
80308;BME280;69616;43.522;1.348;2023-07-20T04:15:29;99979.25;;;19.71;66.08
80308;BME280;69616;43.522;1.348;2023-07-20T04:17:54;99978.38;;;19.71;65.65
80308;BME280;69616;43.522;1.348;2023-07-20T04:20:22;99973.91;;;19.71;65.77
80308;BME280;69616;43.522;1.348;2023-07-20T04:22:47;99979.31;;;19.70;66.18
80308;BME280;69616;43.522;1.348;2023-07-20T04:25:13;99971.38;;;19.68;66.14
80308;BME280;69616;43.522;1.348;2023-07-20T04:27:38;99966.06;;;19.68;65.99
80308;BME280;69616;43.522;1.348;2023-07-20T04:30:04;99964.31;;;19.67;66.00
80308;BME280;69616;43.522;1.348;2023-07-20T04:32:31;99961.69;;;19.65;65.97
80308;BME280;69616;43.522;1.348;2023-07-20T04:34:59;99957.34;;;19.63;66.36
80308;BME280;69616;43.522;1.348;2023-07-20T04:37:24;99961.91;;;19.61;66.26
80308;BME280;69616;43.522;1.348;2023-07-20T04:39:49;99960.19;;;19.60;66.24
80308;BME280;69616;43.522;1.348;2023-07-20T04:42:15;99961.75;;;19.64;66.08
80308;BME280;69616;43.522;1.348;2023-07-20T04:44:41;99964.38;;;19.65;65.80
80308;BME280;69616;43.522;1.348;2023-07-20T04:47:06;99956.38;;;19.65;65.80
80308;BME280;69616;43.522;1.348;2023-07-20T04:49:32;99949.28;;;19.64;65.54
80308;BME280;69616;43.522;1.348;2023-07-20T04:51:57;99960.72;;;19.68;65.86
80308;BME280;69616;43.522;1.348;2023-07-20T04:54:22;99954.34;;;19.71;65.74
80308;BME280;69616;43.522;1.348;2023-07-20T04:56:48;99952.31;;;19.76;66.00
80308;BME280;69616;43.522;1.348;2023-07-20T04:59:13;99952.19;;;19.79;65.65
80308;BME280;69616;43.522;1.348;2023-07-20T05:01:38;99958.38;;;19.79;65.46
80308;BME280;69616;43.522;1.348;2023-07-20T05:04:04;99960.06;;;19.82;65.54
80308;BME280;69616;43.522;1.348;2023-07-20T05:06:30;99960.06;;;19.82;65.73
80308;BME280;69616;43.522;1.348;2023-07-20T05:08:55;99953.66;;;19.85;65.80
80308;BME280;69616;43.522;1.348;2023-07-20T05:11:21;99949.91;;;19.89;65.25
80308;BME280;69616;43.522;1.348;2023-07-20T05:13:46;99941.34;;;20.01;65.04
80308;BME280;69616;43.522;1.348;2023-07-20T05:16:11;99936.91;;;20.19;64.47
80308;BME280;69616;43.522;1.348;2023-07-20T05:18:37;99938.81;;;20.35;64.08
80308;BME280;69616;43.522;1.348;2023-07-20T05:21:02;99938.13;;;20.49;64.07
80308;BME280;69616;43.522;1.348;2023-07-20T05:23:27;99941.19;;;20.59;63.36
80308;BME280;69616;43.522;1.348;2023-07-20T05:25:57;99931.50;;;20.74;63.28
80308;BME280;69616;43.522;1.348;2023-07-20T05:28:23;99931.16;;;20.82;62.73
80308;BME280;69616;43.522;1.348;2023-07-20T05:30:52;99932.47;;;20.90;62.62
80308;BME280;69616;43.522;1.348;2023-07-20T05:33:19;99941.75;;;21.01;62.39
80308;BME280;69616;43.522;1.348;2023-07-20T05:35:44;99936.22;;;21.04;62.49
80308;BME280;69616;43.522;1.348;2023-07-20T05:38:10;99941.34;;;21.08;62.38
80308;BME280;69616;43.522;1.348;2023-07-20T05:40:40;99940.75;;;21.19;62.15
80308;BME280;69616;43.522;1.348;2023-07-20T05:43:06;99939.13;;;21.33;61.50
80308;BME280;69616;43.522;1.348;2023-07-20T05:45:31;99939.59;;;21.41;61.62
80308;BME280;69616;43.522;1.348;2023-07-20T05:47:56;99926.47;;;21.52;61.29
80308;BME280;69616;43.522;1.348;2023-07-20T05:50:22;99930.13;;;21.68;60.77
80308;BME280;69616;43.522;1.348;2023-07-20T05:52:47;99927.56;;;21.82;60.73
80308;BME280;69616;43.522;1.348;2023-07-20T05:55:13;99932.50;;;21.90;60.34
80308;BME280;69616;43.522;1.348;2023-07-20T05:57:38;99929.63;;;21.93;60.60
80308;BME280;69616;43.522;1.348;2023-07-20T06:00:07;99926.88;;;21.94;60.27
80308;BME280;69616;43.522;1.348;2023-07-20T06:02:33;99931.59;;;21.89;60.49
80308;BME280;69616;43.522;1.348;2023-07-20T06:04:58;99933.44;;;21.89;60.38
80308;BME280;69616;43.522;1.348;2023-07-20T06:07:24;99919.31;;;22.01;60.53
80308;BME280;69616;43.522;1.348;2023-07-20T06:09:49;99922.50;;;22.08;60.29
80308;BME280;69616;43.522;1.348;2023-07-20T06:12:15;99918.81;;;22.11;60.30
80308;BME280;69616;43.522;1.348;2023-07-20T06:14:40;99922.84;;;22.18;60.17
80308;BME280;69616;43.522;1.348;2023-07-20T06:17:05;99926.03;;;22.25;60.07
80308;BME280;69616;43.522;1.348;2023-07-20T06:19:31;99916.59;;;22.33;59.82
80308;BME280;69616;43.522;1.348;2023-07-20T06:21:56;99917.84;;;22.42;59.52
80308;BME280;69616;43.522;1.348;2023-07-20T06:24:22;99920.88;;;22.52;59.41
80308;BME280;69616;43.522;1.348;2023-07-20T06:26:47;99918.63;;;22.60;59.53
80308;BME280;69616;43.522;1.348;2023-07-20T06:29:13;99924.66;;;22.64;59.34
80308;BME280;69616;43.522;1.348;2023-07-20T06:31:38;99924.19;;;22.72;59.17
80308;BME280;69616;43.522;1.348;2023-07-20T06:34:04;99924.31;;;22.85;58.99
80308;BME280;69616;43.522;1.348;2023-07-20T06:36:29;99918.78;;;23.02;58.56
80308;BME280;69616;43.522;1.348;2023-07-20T06:38:58;99931.72;;;23.10;58.51
80308;BME280;69616;43.522;1.348;2023-07-20T06:41:23;99920.22;;;23.22;57.99
80308;BME280;69616;43.522;1.348;2023-07-20T06:43:49;99915.53;;;23.26;58.04
80308;BME280;69616;43.522;1.348;2023-07-20T06:46:14;99918.47;;;23.21;58.13
80308;BME280;69616;43.522;1.348;2023-07-20T06:48:40;99917.94;;;23.31;58.25
80308;BME280;69616;43.522;1.348;2023-07-20T06:51:05;99919.09;;;23.41;57.75
80308;BME280;69616;43.522;1.348;2023-07-20T06:53:31;99913.50;;;23.44;57.72
80308;BME280;69616;43.522;1.348;2023-07-20T06:55:57;99916.94;;;23.61;57.15
80308;BME280;69616;43.522;1.348;2023-07-20T06:58:25;99909.25;;;23.69;56.87
80308;BME280;69616;43.522;1.348;2023-07-20T07:00:51;99915.38;;;23.71;56.88
80308;BME280;69616;43.522;1.348;2023-07-20T07:03:16;99909.00;;;23.87;56.79
80308;BME280;69616;43.522;1.348;2023-07-20T07:05:43;99900.72;;;24.04;56.43
80308;BME280;69616;43.522;1.348;2023-07-20T07:08:09;99895.84;;;24.24;56.10
80308;BME280;69616;43.522;1.348;2023-07-20T07:10:35;99900.31;;;24.51;55.66
80308;BME280;69616;43.522;1.348;2023-07-20T07:13:01;99897.69;;;24.77;55.14
80308;BME280;69616;43.522;1.348;2023-07-20T07:15:26;99893.69;;;24.96;54.89
80308;BME280;69616;43.522;1.348;2023-07-20T07:17:52;99897.97;;;25.11;53.95
80308;BME280;69616;43.522;1.348;2023-07-20T07:20:18;99893.88;;;25.05;54.23
80308;BME280;69616;43.522;1.348;2023-07-20T07:22:43;99894.44;;;25.11;53.86
80308;BME280;69616;43.522;1.348;2023-07-20T07:25:09;99896.38;;;25.21;53.80
80308;BME280;69616;43.522;1.348;2023-07-20T07:27:35;99886.34;;;25.23;53.64
80308;BME280;69616;43.522;1.348;2023-07-20T07:30:01;99893.56;;;25.23;53.55
80308;BME280;69616;43.522;1.348;2023-07-20T07:32:26;99890.53;;;25.28;54.11
80308;BME280;69616;43.522;1.348;2023-07-20T07:34:51;99894.81;;;25.43;53.52
80308;BME280;69616;43.522;1.348;2023-07-20T07:37:17;99890.69;;;25.63;52.83
80308;BME280;69616;43.522;1.348;2023-07-20T07:39:44;99893.91;;;25.69;52.27
80308;BME280;69616;43.522;1.348;2023-07-20T07:42:10;99893.22;;;25.78;51.98
80308;BME280;69616;43.522;1.348;2023-07-20T07:44:36;99890.31;;;26.05;51.71
80308;BME280;69616;43.522;1.348;2023-07-20T07:47:01;99888.00;;;26.36;51.51
80308;BME280;69616;43.522;1.348;2023-07-20T07:49:27;99884.63;;;26.57;50.91
80308;BME280;69616;43.522;1.348;2023-07-20T07:51:53;99877.00;;;26.62;50.94
80308;BME280;69616;43.522;1.348;2023-07-20T07:54:18;99883.94;;;26.67;50.46
80308;BME280;69616;43.522;1.348;2023-07-20T07:56:43;99877.19;;;26.84;49.90
80308;BME280;69616;43.522;1.348;2023-07-20T07:59:09;99869.13;;;27.06;49.83
80308;BME280;69616;43.522;1.348;2023-07-20T08:01:35;99879.81;;;27.19;49.67
80308;BME280;69616;43.522;1.348;2023-07-20T08:04:00;99876.97;;;27.21;49.01
80308;BME280;69616;43.522;1.348;2023-07-20T08:06:26;99870.97;;;27.17;49.14
80308;BME280;69616;43.522;1.348;2023-07-20T08:08:51;99868.13;;;27.19;48.63
80308;BME280;69616;43.522;1.348;2023-07-20T08:11:17;99861.38;;;27.25;49.12
80308;BME280;69616;43.522;1.348;2023-07-20T08:13:43;99863.31;;;27.45;48.57
80308;BME280;69616;43.522;1.348;2023-07-20T08:16:08;99864.66;;;27.62;48.39
80308;BME280;69616;43.522;1.348;2023-07-20T08:18:34;99855.88;;;27.82;48.26
80308;BME280;69616;43.522;1.348;2023-07-20T08:20:59;99850.63;;;28.01;48.04
80308;BME280;69616;43.522;1.348;2023-07-20T08:23:24;99855.97;;;28.24;47.47
80308;BME280;69616;43.522;1.348;2023-07-20T08:25:51;99846.81;;;28.36;46.89
80308;BME280;69616;43.522;1.348;2023-07-20T08:28:16;99855.78;;;28.37;46.92
80308;BME280;69616;43.522;1.348;2023-07-20T08:30:46;99854.94;;;28.36;46.81
80308;BME280;69616;43.522;1.348;2023-07-20T08:33:17;99852.81;;;28.40;46.37
80308;BME280;69616;43.522;1.348;2023-07-20T08:35:46;99856.25;;;28.42;46.44
80308;BME280;69616;43.522;1.348;2023-07-20T08:38:11;99855.81;;;28.58;46.54
80308;BME280;69616;43.522;1.348;2023-07-20T08:40:42;99857.91;;;28.55;46.24
80308;BME280;69616;43.522;1.348;2023-07-20T08:43:10;99845.94;;;28.57;46.25
80308;BME280;69616;43.522;1.348;2023-07-20T08:45:38;99858.16;;;28.73;46.12
80308;BME280;69616;43.522;1.348;2023-07-20T08:48:05;99861.38;;;28.88;45.96
80308;BME280;69616;43.522;1.348;2023-07-20T08:50:31;99854.47;;;29.05;45.46
80308;BME280;69616;43.522;1.348;2023-07-20T08:52:58;99844.25;;;29.18;44.59
80308;BME280;69616;43.522;1.348;2023-07-20T08:55:26;99848.13;;;29.26;44.64
80308;BME280;69616;43.522;1.348;2023-07-20T08:57:55;99843.88;;;29.33;44.32
80308;BME280;69616;43.522;1.348;2023-07-20T09:00:22;99839.47;;;29.32;43.81
80308;BME280;69616;43.522;1.348;2023-07-20T09:02:53;99834.28;;;29.29;43.86
80308;BME280;69616;43.522;1.348;2023-07-20T09:05:20;99834.03;;;29.32;43.68
80308;BME280;69616;43.522;1.348;2023-07-20T09:07:46;99831.22;;;29.43;43.56
80308;BME280;69616;43.522;1.348;2023-07-20T09:10:11;99827.94;;;29.49;43.62
80308;BME280;69616;43.522;1.348;2023-07-20T09:12:41;99823.41;;;29.60;43.68
80308;BME280;69616;43.522;1.348;2023-07-20T09:15:08;99818.25;;;29.76;43.15
80308;BME280;69616;43.522;1.348;2023-07-20T09:17:34;99815.84;;;29.83;42.66
80308;BME280;69616;43.522;1.348;2023-07-20T09:20:02;99813.41;;;29.60;42.76
80308;BME280;69616;43.522;1.348;2023-07-20T09:22:32;99813.09;;;29.54;43.30
80308;BME280;69616;43.522;1.348;2023-07-20T09:24:58;99811.69;;;29.69;43.19
80308;BME280;69616;43.522;1.348;2023-07-20T09:27:41;99801.97;;;29.86;42.43
80308;BME280;69616;43.522;1.348;2023-07-20T09:30:07;99804.31;;;30.11;42.30
80308;BME280;69616;43.522;1.348;2023-07-20T09:32:43;99799.88;;;30.10;42.11
80308;BME280;69616;43.522;1.348;2023-07-20T09:35:14;99810.41;;;29.93;41.40
80308;BME280;69616;43.522;1.348;2023-07-20T09:37:41;99793.00;;;29.66;41.56
80308;BME280;69616;43.522;1.348;2023-07-20T09:40:07;99795.56;;;29.48;41.56
80308;BME280;69616;43.522;1.348;2023-07-20T09:42:35;99788.69;;;29.63;41.53
80308;BME280;69616;43.522;1.348;2023-07-20T09:45:00;99791.13;;;29.96;41.57
80308;BME280;69616;43.522;1.348;2023-07-20T09:47:26;99789.69;;;30.31;40.47
80308;BME280;69616;43.522;1.348;2023-07-20T09:49:59;99787.47;;;30.55;38.63
80308;BME280;69616;43.522;1.348;2023-07-20T09:52:29;99775.25;;;30.78;39.11
80308;BME280;69616;43.522;1.348;2023-07-20T09:54:55;99777.75;;;31.00;39.12
80308;BME280;69616;43.522;1.348;2023-07-20T09:57:21;99778.22;;;31.13;39.57
80308;BME280;69616;43.522;1.348;2023-07-20T09:59:46;99778.91;;;30.97;39.02
80308;BME280;69616;43.522;1.348;2023-07-20T10:02:25;99779.41;;;30.73;38.93
80308;BME280;69616;43.522;1.348;2023-07-20T10:04:54;99778.16;;;30.77;39.40
80308;BME280;69616;43.522;1.348;2023-07-20T10:07:22;99773.28;;;30.99;38.97
80308;BME280;69616;43.522;1.348;2023-07-20T10:09:51;99775.03;;;31.28;38.96
80308;BME280;69616;43.522;1.348;2023-07-20T10:12:19;99766.00;;;31.45;38.26
80308;BME280;69616;43.522;1.348;2023-07-20T10:14:57;99757.72;;;31.47;37.70
80308;BME280;69616;43.522;1.348;2023-07-20T10:17:25;99756.47;;;31.41;37.44
80308;BME280;69616;43.522;1.348;2023-07-20T10:19:54;99752.72;;;31.24;37.16
80308;BME280;69616;43.522;1.348;2023-07-20T10:22:26;99760.72;;;31.26;38.12
80308;BME280;69616;43.522;1.348;2023-07-20T10:24:51;99752.41;;;31.45;38.02
80308;BME280;69616;43.522;1.348;2023-07-20T10:27:20;99737.50;;;31.68;37.08
80308;BME280;69616;43.522;1.348;2023-07-20T10:29:46;99738.84;;;31.82;37.29
80308;BME280;69616;43.522;1.348;2023-07-20T10:32:12;99742.06;;;32.03;37.48
80308;BME280;69616;43.522;1.348;2023-07-20T10:34:39;99745.59;;;32.22;37.35
80308;BME280;69616;43.522;1.348;2023-07-20T10:37:04;99742.38;;;32.27;36.80
80308;BME280;69616;43.522;1.348;2023-07-20T10:39:33;99740.03;;;32.05;36.81
80308;BME280;69616;43.522;1.348;2023-07-20T10:42:07;99732.75;;;31.88;36.88
80308;BME280;69616;43.522;1.348;2023-07-20T10:44:33;99732.09;;;31.94;37.25
80308;BME280;69616;43.522;1.348;2023-07-20T10:47:06;99730.53;;;32.10;37.01
80308;BME280;69616;43.522;1.348;2023-07-20T10:49:34;99730.47;;;32.01;36.92
80308;BME280;69616;43.522;1.348;2023-07-20T10:52:04;99725.75;;;32.12;36.94
80308;BME280;69616;43.522;1.348;2023-07-20T10:57:21;99730.88;;;32.15;36.24
80308;BME280;69616;43.522;1.348;2023-07-20T10:59:46;99721.88;;;32.14;36.40
80308;BME280;69616;43.522;1.348;2023-07-20T11:02:12;99727.91;;;32.00;36.23
80308;BME280;69616;43.522;1.348;2023-07-20T11:04:39;99727.56;;;32.03;36.57
80308;BME280;69616;43.522;1.348;2023-07-20T11:07:05;99721.66;;;32.07;35.73
80308;BME280;69616;43.522;1.348;2023-07-20T11:09:38;99713.84;;;32.13;36.10
80308;BME280;69616;43.522;1.348;2023-07-20T11:12:12;99710.47;;;32.19;36.07
80308;BME280;69616;43.522;1.348;2023-07-20T11:14:56;99700.03;;;32.32;35.55
80308;BME280;69616;43.522;1.348;2023-07-20T11:17:31;99699.59;;;32.45;35.66
80308;BME280;69616;43.522;1.348;2023-07-20T11:19:58;99702.56;;;32.60;35.09
80308;BME280;69616;43.522;1.348;2023-07-20T11:22:26;99697.47;;;32.65;35.41
80308;BME280;69616;43.522;1.348;2023-07-20T11:24:55;99692.00;;;32.57;35.26
80308;BME280;69616;43.522;1.348;2023-07-20T11:27:20;99687.75;;;32.63;35.17
80308;BME280;69616;43.522;1.348;2023-07-20T11:29:48;99684.56;;;32.68;34.81
80308;BME280;69616;43.522;1.348;2023-07-20T11:32:20;99677.75;;;32.72;35.43
80308;BME280;69616;43.522;1.348;2023-07-20T11:34:46;99680.53;;;32.88;34.26
80308;BME280;69616;43.522;1.348;2023-07-20T11:37:13;99671.03;;;32.92;34.42
80308;BME280;69616;43.522;1.348;2023-07-20T11:39:38;99666.25;;;33.03;34.64
80308;BME280;69616;43.522;1.348;2023-07-20T11:42:05;99664.91;;;33.15;34.16
80308;BME280;69616;43.522;1.348;2023-07-20T11:44:30;99667.31;;;33.27;34.17
80308;BME280;69616;43.522;1.348;2023-07-20T11:47:06;99651.59;;;33.04;33.64
80308;BME280;69616;43.522;1.348;2023-07-20T11:49:39;99649.22;;;32.92;33.96
80308;BME280;69616;43.522;1.348;2023-07-20T11:52:10;99644.06;;;32.89;34.08
80308;BME280;69616;43.522;1.348;2023-07-20T11:54:37;99639.47;;;32.98;34.14
80308;BME280;69616;43.522;1.348;2023-07-20T11:57:03;99635.56;;;33.01;33.97
80308;BME280;69616;43.522;1.348;2023-07-20T11:59:31;99633.19;;;33.14;33.65
80308;BME280;69616;43.522;1.348;2023-07-20T12:01:57;99629.28;;;33.09;33.10
80308;BME280;69616;43.522;1.348;2023-07-20T12:04:23;99627.03;;;33.04;33.69
80308;BME280;69616;43.522;1.348;2023-07-20T12:06:48;99637.44;;;33.00;33.27
80308;BME280;69616;43.522;1.348;2023-07-20T12:09:15;99623.78;;;33.00;33.76
80308;BME280;69616;43.522;1.348;2023-07-20T12:11:43;99620.56;;;33.05;33.33
80308;BME280;69616;43.522;1.348;2023-07-20T12:14:09;99621.25;;;33.15;34.22
80308;BME280;69616;43.522;1.348;2023-07-20T12:16:36;99612.75;;;33.27;33.70
80308;BME280;69616;43.522;1.348;2023-07-20T12:19:12;99625.19;;;33.38;33.64
80308;BME280;69616;43.522;1.348;2023-07-20T12:21:40;99615.84;;;33.48;33.13
80308;BME280;69616;43.522;1.348;2023-07-20T12:24:08;99613.78;;;33.50;33.06
80308;BME280;69616;43.522;1.348;2023-07-20T12:26:36;99605.44;;;33.52;32.81
80308;BME280;69616;43.522;1.348;2023-07-20T12:29:02;99597.56;;;33.57;32.56
80308;BME280;69616;43.522;1.348;2023-07-20T12:31:36;99597.09;;;33.45;31.96
80308;BME280;69616;43.522;1.348;2023-07-20T12:34:01;99593.97;;;33.32;32.68
80308;BME280;69616;43.522;1.348;2023-07-20T12:36:27;99589.53;;;33.39;32.34
80308;BME280;69616;43.522;1.348;2023-07-20T12:38:52;99594.69;;;33.42;32.33
80308;BME280;69616;43.522;1.348;2023-07-20T12:41:18;99596.06;;;33.46;32.53
80308;BME280;69616;43.522;1.348;2023-07-20T12:43:46;99585.31;;;33.53;32.77
80308;BME280;69616;43.522;1.348;2023-07-20T12:46:12;99590.56;;;33.63;32.63
80308;BME280;69616;43.522;1.348;2023-07-20T12:48:39;99587.31;;;33.68;32.55
80308;BME280;69616;43.522;1.348;2023-07-20T12:51:07;99582.38;;;33.71;32.35
80308;BME280;69616;43.522;1.348;2023-07-20T12:53:33;99576.91;;;33.71;32.01
80308;BME280;69616;43.522;1.348;2023-07-20T12:55:59;99582.84;;;33.75;31.62
80308;BME280;69616;43.522;1.348;2023-07-20T12:58:25;99575.16;;;33.78;32.22
80308;BME280;69616;43.522;1.348;2023-07-20T13:00:51;99577.53;;;33.82;32.13
80308;BME280;69616;43.522;1.348;2023-07-20T13:03:16;99577.88;;;33.87;32.28